sensor_id;sensor_type;location;lat;lon;timestamp;P1;durP1;ratioP1;P2;durP2;ratioP2
1467;SDS011;727;48.892;9.544;2024-01-30T00:00:49;5.80;;;5.20;;
1467;SDS011;727;48.892;9.544;2024-01-30T00:03:16;6.80;;;5.38;;
1467;SDS011;727;48.892;9.544;2024-01-30T00:05:44;9.48;;;5.88;;
1467;SDS011;727;48.892;9.544;2024-01-30T00:08:11;8.35;;;6.38;;
1467;SDS011;727;48.892;9.544;2024-01-30T00:10:39;5.53;;;4.93;;
1467;SDS011;727;48.892;9.544;2024-01-30T00:13:05;7.03;;;6.25;;
1467;SDS011;727;48.892;9.544;2024-01-30T00:15:32;6.15;;;5.55;;
1467;SDS011;727;48.892;9.544;2024-01-30T00:17:59;6.32;;;5.68;;
1467;SDS011;727;48.892;9.544;2024-01-30T00:20:26;6.93;;;6.03;;
1467;SDS011;727;48.892;9.544;2024-01-30T00:22:52;7.05;;;6.35;;
1467;SDS011;727;48.892;9.544;2024-01-30T00:25:19;6.32;;;5.55;;
1467;SDS011;727;48.892;9.544;2024-01-30T00:27:47;6.07;;;5.40;;
1467;SDS011;727;48.892;9.544;2024-01-30T00:30:14;5.53;;;4.93;;
1467;SDS011;727;48.892;9.544;2024-01-30T00:32:41;6.43;;;5.22;;
1467;SDS011;727;48.892;9.544;2024-01-30T00:35:07;7.53;;;5.95;;
1467;SDS011;727;48.892;9.544;2024-01-30T00:37:35;9.60;;;5.32;;
1467;SDS011;727;48.892;9.544;2024-01-30T00:40:03;7.65;;;5.50;;
1467;SDS011;727;48.892;9.544;2024-01-30T00:42:31;7.53;;;6.35;;
1467;SDS011;727;48.892;9.544;2024-01-30T00:44:59;8.02;;;7.13;;
1467;SDS011;727;48.892;9.544;2024-01-30T00:47:25;6.65;;;5.28;;
1467;SDS011;727;48.892;9.544;2024-01-30T00:49:54;10.18;;;5.57;;
1467;SDS011;727;48.892;9.544;2024-01-30T00:52:20;6.50;;;5.65;;
1467;SDS011;727;48.892;9.544;2024-01-30T00:54:47;7.18;;;5.53;;
1467;SDS011;727;48.892;9.544;2024-01-30T00:57:14;7.93;;;6.72;;
1467;SDS011;727;48.892;9.544;2024-01-30T00:59:40;7.05;;;6.10;;
1467;SDS011;727;48.892;9.544;2024-01-30T01:02:08;9.52;;;7.50;;
1467;SDS011;727;48.892;9.544;2024-01-30T01:04:35;10.48;;;7.70;;
1467;SDS011;727;48.892;9.544;2024-01-30T01:07:02;12.40;;;6.95;;
1467;SDS011;727;48.892;9.544;2024-01-30T01:09:29;8.35;;;7.55;;
1467;SDS011;727;48.892;9.544;2024-01-30T01:11:55;10.35;;;6.93;;
1467;SDS011;727;48.892;9.544;2024-01-30T01:14:22;7.00;;;6.30;;
1467;SDS011;727;48.892;9.544;2024-01-30T01:16:49;10.90;;;6.75;;
1467;SDS011;727;48.892;9.544;2024-01-30T01:19:17;9.48;;;7.88;;
1467;SDS011;727;48.892;9.544;2024-01-30T01:21:43;9.98;;;7.35;;
1467;SDS011;727;48.892;9.544;2024-01-30T01:24:10;7.50;;;6.70;;
1467;SDS011;727;48.892;9.544;2024-01-30T01:26:37;10.18;;;7.10;;
1467;SDS011;727;48.892;9.544;2024-01-30T01:29:03;5.95;;;5.45;;
1467;SDS011;727;48.892;9.544;2024-01-30T01:31:34;7.50;;;5.80;;
1467;SDS011;727;48.892;9.544;2024-01-30T01:34:04;6.13;;;5.50;;
1467;SDS011;727;48.892;9.544;2024-01-30T01:36:33;5.13;;;4.63;;
1467;SDS011;727;48.892;9.544;2024-01-30T01:38:59;5.68;;;5.18;;
1467;SDS011;727;48.892;9.544;2024-01-30T01:41:29;4.85;;;4.45;;
1467;SDS011;727;48.892;9.544;2024-01-30T01:43:56;6.63;;;5.75;;
1467;SDS011;727;48.892;9.544;2024-01-30T01:46:23;6.97;;;5.00;;
1467;SDS011;727;48.892;9.544;2024-01-30T01:48:52;9.05;;;5.53;;
1467;SDS011;727;48.892;9.544;2024-01-30T01:51:19;7.45;;;5.68;;
1467;SDS011;727;48.892;9.544;2024-01-30T01:53:48;7.32;;;6.53;;
1467;SDS011;727;48.892;9.544;2024-01-30T01:56:14;7.45;;;6.57;;
1467;SDS011;727;48.892;9.544;2024-01-30T01:58:42;13.88;;;8.57;;
1467;SDS011;727;48.892;9.544;2024-01-30T02:01:11;9.35;;;6.45;;
1467;SDS011;727;48.892;9.544;2024-01-30T02:03:39;7.65;;;5.90;;
1467;SDS011;727;48.892;9.544;2024-01-30T02:06:07;10.25;;;6.03;;
1467;SDS011;727;48.892;9.544;2024-01-30T02:08:34;8.27;;;7.15;;
1467;SDS011;727;48.892;9.544;2024-01-30T02:11:03;7.93;;;6.85;;
1467;SDS011;727;48.892;9.544;2024-01-30T02:13:31;9.52;;;8.20;;
1467;SDS011;727;48.892;9.544;2024-01-30T02:15:57;8.18;;;6.93;;
1467;SDS011;727;48.892;9.544;2024-01-30T02:18:24;7.15;;;6.05;;
1467;SDS011;727;48.892;9.544;2024-01-30T02:20:51;9.23;;;6.30;;
1467;SDS011;727;48.892;9.544;2024-01-30T02:23:21;7.15;;;5.85;;
1467;SDS011;727;48.892;9.544;2024-01-30T02:25:50;6.57;;;5.72;;
1467;SDS011;727;48.892;9.544;2024-01-30T02:28:18;6.32;;;5.28;;
1467;SDS011;727;48.892;9.544;2024-01-30T02:30:45;8.48;;;6.35;;
1467;SDS011;727;48.892;9.544;2024-01-30T02:33:12;9.27;;;5.75;;
1467;SDS011;727;48.892;9.544;2024-01-30T02:35:39;5.88;;;5.30;;
1467;SDS011;727;48.892;9.544;2024-01-30T02:38:06;8.40;;;6.30;;
1467;SDS011;727;48.892;9.544;2024-01-30T02:40:34;8.18;;;6.18;;
1467;SDS011;727;48.892;9.544;2024-01-30T02:43:01;8.07;;;6.68;;
1467;SDS011;727;48.892;9.544;2024-01-30T02:45:28;6.85;;;6.15;;
1467;SDS011;727;48.892;9.544;2024-01-30T02:47:55;5.85;;;5.25;;
1467;SDS011;727;48.892;9.544;2024-01-30T02:50:22;13.68;;;5.68;;
1467;SDS011;727;48.892;9.544;2024-01-30T02:52:48;6.93;;;6.22;;
1467;SDS011;727;48.892;9.544;2024-01-30T02:55:15;6.47;;;5.30;;
1467;SDS011;727;48.892;9.544;2024-01-30T02:57:44;5.75;;;5.07;;
1467;SDS011;727;48.892;9.544;2024-01-30T03:00:12;10.18;;;6.28;;
1467;SDS011;727;48.892;9.544;2024-01-30T03:02:39;5.82;;;5.22;;
1467;SDS011;727;48.892;9.544;2024-01-30T03:05:06;5.80;;;5.30;;
1467;SDS011;727;48.892;9.544;2024-01-30T03:07:34;4.72;;;4.32;;
1467;SDS011;727;48.892;9.544;2024-01-30T03:10:00;7.57;;;5.03;;
1467;SDS011;727;48.892;9.544;2024-01-30T03:12:27;6.22;;;5.13;;
1467;SDS011;727;48.892;9.544;2024-01-30T03:14:55;6.90;;;5.13;;
1467;SDS011;727;48.892;9.544;2024-01-30T03:17:22;7.85;;;5.35;;
1467;SDS011;727;48.892;9.544;2024-01-30T03:19:52;6.10;;;5.20;;
1467;SDS011;727;48.892;9.544;2024-01-30T03:22:18;4.53;;;4.13;;
1467;SDS011;727;48.892;9.544;2024-01-30T03:24:45;5.40;;;4.88;;
1467;SDS011;727;48.892;9.544;2024-01-30T03:27:12;7.90;;;5.70;;
1467;SDS011;727;48.892;9.544;2024-01-30T03:29:38;6.53;;;5.80;;
1467;SDS011;727;48.892;9.544;2024-01-30T03:32:08;7.43;;;6.15;;
1467;SDS011;727;48.892;9.544;2024-01-30T03:34:35;8.25;;;6.43;;
1467;SDS011;727;48.892;9.544;2024-01-30T03:37:02;6.40;;;5.80;;
1467;SDS011;727;48.892;9.544;2024-01-30T03:39:29;7.25;;;5.43;;
1467;SDS011;727;48.892;9.544;2024-01-30T03:41:56;6.53;;;5.65;;
1467;SDS011;727;48.892;9.544;2024-01-30T03:44:23;5.25;;;4.75;;
1467;SDS011;727;48.892;9.544;2024-01-30T03:46:50;5.00;;;4.60;;
1467;SDS011;727;48.892;9.544;2024-01-30T03:49:18;7.80;;;4.65;;
1467;SDS011;727;48.892;9.544;2024-01-30T03:51:44;6.47;;;5.43;;
1467;SDS011;727;48.892;9.544;2024-01-30T03:54:12;5.10;;;4.63;;
1467;SDS011;727;48.892;9.544;2024-01-30T03:56:39;6.07;;;4.47;;
1467;SDS011;727;48.892;9.544;2024-01-30T03:59:05;5.60;;;5.10;;
1467;SDS011;727;48.892;9.544;2024-01-30T04:01:32;6.25;;;5.13;;
1467;SDS011;727;48.892;9.544;2024-01-30T04:03:59;6.10;;;4.95;;
1467;SDS011;727;48.892;9.544;2024-01-30T04:06:27;7.22;;;5.85;;
1467;SDS011;727;48.892;9.544;2024-01-30T04:08:54;6.47;;;5.30;;
1467;SDS011;727;48.892;9.544;2024-01-30T04:11:20;6.50;;;5.05;;
1467;SDS011;727;48.892;9.544;2024-01-30T04:13:47;6.07;;;5.47;;
1467;SDS011;727;48.892;9.544;2024-01-30T04:16:19;7.10;;;5.93;;
1467;SDS011;727;48.892;9.544;2024-01-30T04:18:46;6.90;;;6.25;;
1467;SDS011;727;48.892;9.544;2024-01-30T04:21:13;7.75;;;5.78;;
1467;SDS011;727;48.892;9.544;2024-01-30T04:23:41;6.15;;;5.55;;
1467;SDS011;727;48.892;9.544;2024-01-30T04:26:08;7.38;;;6.57;;
1467;SDS011;727;48.892;9.544;2024-01-30T04:28:35;6.78;;;6.07;;
1467;SDS011;727;48.892;9.544;2024-01-30T04:31:01;6.47;;;5.15;;
1467;SDS011;727;48.892;9.544;2024-01-30T04:33:28;6.65;;;5.55;;
1467;SDS011;727;48.892;9.544;2024-01-30T04:35:55;6.07;;;5.47;;
1467;SDS011;727;48.892;9.544;2024-01-30T04:38:21;11.90;;;7.68;;
1467;SDS011;727;48.892;9.544;2024-01-30T04:40:49;6.13;;;5.53;;
1467;SDS011;727;48.892;9.544;2024-01-30T04:43:16;7.50;;;6.20;;
1467;SDS011;727;48.892;9.544;2024-01-30T04:45:44;5.53;;;5.05;;
1467;SDS011;727;48.892;9.544;2024-01-30T04:48:10;6.03;;;5.43;;
1467;SDS011;727;48.892;9.544;2024-01-30T04:50:37;5.85;;;5.25;;
1467;SDS011;727;48.892;9.544;2024-01-30T04:53:04;5.97;;;5.18;;
1467;SDS011;727;48.892;9.544;2024-01-30T04:55:30;8.73;;;6.53;;
1467;SDS011;727;48.892;9.544;2024-01-30T04:57:58;8.20;;;6.70;;
1467;SDS011;727;48.892;9.544;2024-01-30T05:00:25;5.88;;;5.25;;
1467;SDS011;727;48.892;9.544;2024-01-30T05:02:52;6.80;;;5.40;;
1467;SDS011;727;48.892;9.544;2024-01-30T05:05:18;7.28;;;5.88;;
1467;SDS011;727;48.892;9.544;2024-01-30T05:07:46;8.52;;;6.07;;
1467;SDS011;727;48.892;9.544;2024-01-30T05:10:13;6.93;;;6.18;;
1467;SDS011;727;48.892;9.544;2024-01-30T05:12:40;9.32;;;7.45;;
1467;SDS011;727;48.892;9.544;2024-01-30T05:15:09;7.07;;;5.97;;
1467;SDS011;727;48.892;9.544;2024-01-30T05:17:35;13.02;;;8.25;;
1467;SDS011;727;48.892;9.544;2024-01-30T05:20:02;10.40;;;7.90;;
1467;SDS011;727;48.892;9.544;2024-01-30T05:22:29;10.60;;;9.30;;
1467;SDS011;727;48.892;9.544;2024-01-30T05:24:56;8.43;;;6.60;;
1467;SDS011;727;48.892;9.544;2024-01-30T05:27:23;9.20;;;6.15;;
1467;SDS011;727;48.892;9.544;2024-01-30T05:29:49;9.77;;;6.47;;
1467;SDS011;727;48.892;9.544;2024-01-30T05:32:17;6.80;;;5.50;;
1467;SDS011;727;48.892;9.544;2024-01-30T05:34:44;8.35;;;6.50;;
1467;SDS011;727;48.892;9.544;2024-01-30T05:37:11;6.28;;;5.68;;
1467;SDS011;727;48.892;9.544;2024-01-30T05:39:41;8.80;;;6.03;;
1467;SDS011;727;48.892;9.544;2024-01-30T05:42:08;7.55;;;6.75;;
1467;SDS011;727;48.892;9.544;2024-01-30T05:44:35;8.07;;;6.30;;
1467;SDS011;727;48.892;9.544;2024-01-30T05:47:02;6.63;;;5.93;;
1467;SDS011;727;48.892;9.544;2024-01-30T05:49:30;9.15;;;6.85;;
1467;SDS011;727;48.892;9.544;2024-01-30T05:51:56;7.72;;;5.47;;
1467;SDS011;727;48.892;9.544;2024-01-30T05:54:23;12.43;;;8.20;;
1467;SDS011;727;48.892;9.544;2024-01-30T05:56:50;10.02;;;7.93;;
1467;SDS011;727;48.892;9.544;2024-01-30T05:59:16;8.95;;;8.07;;
1467;SDS011;727;48.892;9.544;2024-01-30T06:01:45;11.20;;;9.02;;
1467;SDS011;727;48.892;9.544;2024-01-30T06:04:12;11.63;;;9.35;;
1467;SDS011;727;48.892;9.544;2024-01-30T06:06:40;10.10;;;8.05;;
1467;SDS011;727;48.892;9.544;2024-01-30T06:09:07;8.77;;;7.85;;
1467;SDS011;727;48.892;9.544;2024-01-30T06:11:34;10.45;;;8.05;;
1467;SDS011;727;48.892;9.544;2024-01-30T06:14:01;8.38;;;7.15;;
1467;SDS011;727;48.892;9.544;2024-01-30T06:16:27;7.18;;;6.57;;
1467;SDS011;727;48.892;9.544;2024-01-30T06:18:55;7.45;;;6.78;;
1467;SDS011;727;48.892;9.544;2024-01-30T06:21:22;8.23;;;6.03;;
1467;SDS011;727;48.892;9.544;2024-01-30T06:23:50;9.35;;;6.90;;
1467;SDS011;727;48.892;9.544;2024-01-30T06:26:17;16.83;;;15.20;;
1467;SDS011;727;48.892;9.544;2024-01-30T06:28:44;14.77;;;10.70;;
1467;SDS011;727;48.892;9.544;2024-01-30T06:31:10;14.82;;;13.30;;
1467;SDS011;727;48.892;9.544;2024-01-30T06:33:37;15.80;;;14.43;;
1467;SDS011;727;48.892;9.544;2024-01-30T06:36:04;14.70;;;13.27;;
1467;SDS011;727;48.892;9.544;2024-01-30T06:38:31;11.43;;;9.70;;
1467;SDS011;727;48.892;9.544;2024-01-30T06:40:59;12.93;;;10.15;;
1467;SDS011;727;48.892;9.544;2024-01-30T06:43:25;29.80;;;20.75;;
1467;SDS011;727;48.892;9.544;2024-01-30T06:45:52;39.05;;;27.70;;
1467;SDS011;727;48.892;9.544;2024-01-30T06:48:19;29.25;;;22.60;;
1467;SDS011;727;48.892;9.544;2024-01-30T06:50:45;43.30;;;28.42;;
1467;SDS011;727;48.892;9.544;2024-01-30T06:53:13;31.50;;;22.23;;
1467;SDS011;727;48.892;9.544;2024-01-30T06:55:39;27.10;;;20.20;;
1467;SDS011;727;48.892;9.544;2024-01-30T06:58:07;23.83;;;18.52;;
1467;SDS011;727;48.892;9.544;2024-01-30T07:00:34;18.08;;;15.10;;
1467;SDS011;727;48.892;9.544;2024-01-30T07:03:01;13.65;;;11.25;;
1467;SDS011;727;48.892;9.544;2024-01-30T07:05:27;18.60;;;15.40;;
1467;SDS011;727;48.892;9.544;2024-01-30T07:07:54;26.70;;;21.67;;
1467;SDS011;727;48.892;9.544;2024-01-30T07:10:21;37.78;;;29.02;;
1467;SDS011;727;48.892;9.544;2024-01-30T07:12:48;33.80;;;26.70;;
1467;SDS011;727;48.892;9.544;2024-01-30T07:15:15;27.88;;;21.73;;
1467;SDS011;727;48.892;9.544;2024-01-30T07:17:45;26.73;;;22.20;;
1467;SDS011;727;48.892;9.544;2024-01-30T07:20:12;21.73;;;18.48;;
1467;SDS011;727;48.892;9.544;2024-01-30T07:22:39;20.25;;;17.05;;
1467;SDS011;727;48.892;9.544;2024-01-30T07:25:06;16.70;;;14.90;;
1467;SDS011;727;48.892;9.544;2024-01-30T07:27:34;18.70;;;15.20;;
1467;SDS011;727;48.892;9.544;2024-01-30T07:30:00;21.33;;;16.40;;
1467;SDS011;727;48.892;9.544;2024-01-30T07:32:29;16.40;;;14.60;;
1467;SDS011;727;48.892;9.544;2024-01-30T07:34:56;13.05;;;10.18;;
1467;SDS011;727;48.892;9.544;2024-01-30T07:37:23;12.15;;;10.13;;
1467;SDS011;727;48.892;9.544;2024-01-30T07:39:49;13.05;;;11.65;;
1467;SDS011;727;48.892;9.544;2024-01-30T07:42:16;13.38;;;11.20;;
1467;SDS011;727;48.892;9.544;2024-01-30T07:44:43;15.80;;;11.50;;
1467;SDS011;727;48.892;9.544;2024-01-30T07:47:10;14.48;;;10.20;;
1467;SDS011;727;48.892;9.544;2024-01-30T07:49:38;12.07;;;10.82;;
1467;SDS011;727;48.892;9.544;2024-01-30T07:52:04;15.50;;;10.60;;
1467;SDS011;727;48.892;9.544;2024-01-30T07:54:32;16.30;;;11.77;;
1467;SDS011;727;48.892;9.544;2024-01-30T07:56:59;22.90;;;13.95;;
1467;SDS011;727;48.892;9.544;2024-01-30T07:59:26;19.58;;;12.82;;
1467;SDS011;727;48.892;9.544;2024-01-30T08:01:53;18.98;;;14.40;;
1467;SDS011;727;48.892;9.544;2024-01-30T08:04:19;15.02;;;11.10;;
1467;SDS011;727;48.892;9.544;2024-01-30T08:06:47;13.10;;;9.52;;
1467;SDS011;727;48.892;9.544;2024-01-30T08:09:14;18.20;;;11.45;;
1467;SDS011;727;48.892;9.544;2024-01-30T08:11:41;15.18;;;11.15;;
1467;SDS011;727;48.892;9.544;2024-01-30T08:14:07;14.98;;;12.90;;
1467;SDS011;727;48.892;9.544;2024-01-30T08:16:34;15.93;;;12.68;;
1467;SDS011;727;48.892;9.544;2024-01-30T08:19:01;14.10;;;10.90;;
1467;SDS011;727;48.892;9.544;2024-01-30T08:21:28;12.85;;;11.10;;
1467;SDS011;727;48.892;9.544;2024-01-30T08:23:56;16.27;;;10.88;;
1467;SDS011;727;48.892;9.544;2024-01-30T08:26:23;10.02;;;9.00;;
1467;SDS011;727;48.892;9.544;2024-01-30T08:28:49;12.23;;;9.52;;
1467;SDS011;727;48.892;9.544;2024-01-30T08:31:18;13.02;;;10.05;;
1467;SDS011;727;48.892;9.544;2024-01-30T08:33:45;13.57;;;9.07;;
1467;SDS011;727;48.892;9.544;2024-01-30T08:36:11;18.02;;;12.88;;
1467;SDS011;727;48.892;9.544;2024-01-30T08:38:38;15.40;;;13.75;;
1467;SDS011;727;48.892;9.544;2024-01-30T08:41:06;16.77;;;14.55;;
1467;SDS011;727;48.892;9.544;2024-01-30T08:43:34;15.63;;;14.00;;
1467;SDS011;727;48.892;9.544;2024-01-30T08:46:01;28.52;;;16.42;;
1467;SDS011;727;48.892;9.544;2024-01-30T08:48:28;49.33;;;42.85;;
1467;SDS011;727;48.892;9.544;2024-01-30T08:50:55;28.73;;;24.77;;
1467;SDS011;727;48.892;9.544;2024-01-30T08:53:21;15.15;;;11.93;;
1467;SDS011;727;48.892;9.544;2024-01-30T08:55:48;17.73;;;11.85;;
1467;SDS011;727;48.892;9.544;2024-01-30T08:58:16;22.70;;;16.00;;
1467;SDS011;727;48.892;9.544;2024-01-30T09:00:44;22.60;;;17.50;;
1467;SDS011;727;48.892;9.544;2024-01-30T09:03:11;29.58;;;18.73;;
1467;SDS011;727;48.892;9.544;2024-01-30T09:05:38;42.55;;;30.60;;
1467;SDS011;727;48.892;9.544;2024-01-30T09:08:05;18.50;;;16.10;;
1467;SDS011;727;48.892;9.544;2024-01-30T09:10:32;13.82;;;12.45;;
1467;SDS011;727;48.892;9.544;2024-01-30T09:12:58;19.85;;;17.33;;
1467;SDS011;727;48.892;9.544;2024-01-30T09:15:26;11.85;;;10.55;;
1467;SDS011;727;48.892;9.544;2024-01-30T09:17:53;14.07;;;11.15;;
1467;SDS011;727;48.892;9.544;2024-01-30T09:20:19;12.90;;;9.63;;
1467;SDS011;727;48.892;9.544;2024-01-30T09:22:47;14.35;;;11.23;;
1467;SDS011;727;48.892;9.544;2024-01-30T09:25:14;13.35;;;12.00;;
1467;SDS011;727;48.892;9.544;2024-01-30T09:27:40;13.38;;;9.25;;
1467;SDS011;727;48.892;9.544;2024-01-30T09:30:07;12.55;;;10.30;;
1467;SDS011;727;48.892;9.544;2024-01-30T09:32:36;14.88;;;9.77;;
1467;SDS011;727;48.892;9.544;2024-01-30T09:35:02;9.35;;;8.20;;
1467;SDS011;727;48.892;9.544;2024-01-30T09:37:29;9.93;;;9.02;;
1467;SDS011;727;48.892;9.544;2024-01-30T09:39:56;24.55;;;18.15;;
1467;SDS011;727;48.892;9.544;2024-01-30T09:42:26;14.55;;;11.40;;
1467;SDS011;727;48.892;9.544;2024-01-30T09:44:59;11.85;;;9.60;;
1467;SDS011;727;48.892;9.544;2024-01-30T09:47:25;10.88;;;9.18;;
1467;SDS011;727;48.892;9.544;2024-01-30T09:49:54;21.60;;;14.45;;
1467;SDS011;727;48.892;9.544;2024-01-30T09:52:22;16.88;;;13.60;;
1467;SDS011;727;48.892;9.544;2024-01-30T09:54:49;28.85;;;21.60;;
1467;SDS011;727;48.892;9.544;2024-01-30T09:57:17;22.42;;;20.27;;
1467;SDS011;727;48.892;9.544;2024-01-30T09:59:44;20.83;;;17.77;;
1467;SDS011;727;48.892;9.544;2024-01-30T10:02:10;10.23;;;8.45;;
1467;SDS011;727;48.892;9.544;2024-01-30T10:04:37;9.77;;;8.77;;
1467;SDS011;727;48.892;9.544;2024-01-30T10:07:05;12.73;;;9.95;;
1467;SDS011;727;48.892;9.544;2024-01-30T10:09:33;16.08;;;13.10;;
1467;SDS011;727;48.892;9.544;2024-01-30T10:12:00;16.75;;;11.43;;
1467;SDS011;727;48.892;9.544;2024-01-30T10:14:28;15.55;;;11.25;;
1467;SDS011;727;48.892;9.544;2024-01-30T10:16:55;28.50;;;21.88;;
1467;SDS011;727;48.892;9.544;2024-01-30T10:19:23;13.77;;;10.65;;
1467;SDS011;727;48.892;9.544;2024-01-30T10:21:50;12.07;;;10.15;;
1467;SDS011;727;48.892;9.544;2024-01-30T10:24:23;9.20;;;8.30;;
1467;SDS011;727;48.892;9.544;2024-01-30T10:26:50;9.10;;;8.20;;
1467;SDS011;727;48.892;9.544;2024-01-30T10:29:17;12.50;;;11.10;;
1467;SDS011;727;48.892;9.544;2024-01-30T10:31:44;12.93;;;10.33;;
1467;SDS011;727;48.892;9.544;2024-01-30T10:34:12;10.00;;;7.90;;
1467;SDS011;727;48.892;9.544;2024-01-30T10:36:39;9.43;;;8.43;;
1467;SDS011;727;48.892;9.544;2024-01-30T10:39:06;10.55;;;9.63;;
1467;SDS011;727;48.892;9.544;2024-01-30T10:41:35;13.25;;;8.95;;
1467;SDS011;727;48.892;9.544;2024-01-30T10:44:09;10.43;;;8.80;;
1467;SDS011;727;48.892;9.544;2024-01-30T10:46:37;9.23;;;8.33;;
1467;SDS011;727;48.892;9.544;2024-01-30T10:49:04;8.40;;;7.33;;
1467;SDS011;727;48.892;9.544;2024-01-30T10:51:32;13.10;;;7.70;;
1467;SDS011;727;48.892;9.544;2024-01-30T10:54:00;11.30;;;8.63;;
1467;SDS011;727;48.892;9.544;2024-01-30T10:56:28;8.33;;;7.53;;
1467;SDS011;727;48.892;9.544;2024-01-30T10:58:59;8.57;;;6.73;;
1467;SDS011;727;48.892;9.544;2024-01-30T11:01:26;9.90;;;7.10;;
1467;SDS011;727;48.892;9.544;2024-01-30T11:03:54;6.80;;;6.10;;
1467;SDS011;727;48.892;9.544;2024-01-30T11:06:22;6.20;;;5.40;;
1467;SDS011;727;48.892;9.544;2024-01-30T11:08:59;5.63;;;5.10;;
1467;SDS011;727;48.892;9.544;2024-01-30T11:11:27;9.53;;;8.37;;
1467;SDS011;727;48.892;9.544;2024-01-30T11:13:53;7.73;;;6.90;;
1467;SDS011;727;48.892;9.544;2024-01-30T11:16:21;7.20;;;6.53;;
1467;SDS011;727;48.892;9.544;2024-01-30T11:18:50;7.87;;;6.67;;
1467;SDS011;727;48.892;9.544;2024-01-30T11:21:17;8.17;;;7.27;;
1467;SDS011;727;48.892;9.544;2024-01-30T11:23:44;9.30;;;7.20;;
1467;SDS011;727;48.892;9.544;2024-01-30T11:26:10;10.90;;;6.77;;
1467;SDS011;727;48.892;9.544;2024-01-30T11:28:37;10.00;;;7.97;;
1467;SDS011;727;48.892;9.544;2024-01-30T11:31:04;9.40;;;7.77;;
1467;SDS011;727;48.892;9.544;2024-01-30T11:33:34;10.60;;;8.20;;
1467;SDS011;727;48.892;9.544;2024-01-30T11:36:01;9.63;;;7.90;;
1467;SDS011;727;48.892;9.544;2024-01-30T11:38:31;16.00;;;8.67;;
1467;SDS011;727;48.892;9.544;2024-01-30T11:40:58;11.17;;;8.60;;
1467;SDS011;727;48.892;9.544;2024-01-30T11:43:27;8.77;;;7.40;;
1467;SDS011;727;48.892;9.544;2024-01-30T11:45:54;11.73;;;9.00;;
1467;SDS011;727;48.892;9.544;2024-01-30T11:48:21;13.60;;;9.00;;
1467;SDS011;727;48.892;9.544;2024-01-30T11:50:49;10.80;;;8.90;;
1467;SDS011;727;48.892;9.544;2024-01-30T11:53:16;11.60;;;9.17;;
1467;SDS011;727;48.892;9.544;2024-01-30T11:55:49;15.83;;;11.00;;
1467;SDS011;727;48.892;9.544;2024-01-30T11:58:16;10.27;;;9.20;;
1467;SDS011;727;48.892;9.544;2024-01-30T12:00:42;13.07;;;8.70;;
1467;SDS011;727;48.892;9.544;2024-01-30T12:03:09;10.67;;;8.77;;
1467;SDS011;727;48.892;9.544;2024-01-30T12:05:37;11.00;;;8.67;;
1467;SDS011;727;48.892;9.544;2024-01-30T12:08:13;11.77;;;9.57;;
1467;SDS011;727;48.892;9.544;2024-01-30T12:10:40;19.60;;;9.73;;
1467;SDS011;727;48.892;9.544;2024-01-30T12:13:07;12.13;;;9.03;;
1467;SDS011;727;48.892;9.544;2024-01-30T12:15:34;12.13;;;10.87;;
1467;SDS011;727;48.892;9.544;2024-01-30T12:18:05;23.30;;;11.97;;
1467;SDS011;727;48.892;9.544;2024-01-30T12:20:32;17.80;;;12.33;;
1467;SDS011;727;48.892;9.544;2024-01-30T12:22:59;14.63;;;9.60;;
1467;SDS011;727;48.892;9.544;2024-01-30T12:25:27;16.13;;;8.43;;
1467;SDS011;727;48.892;9.544;2024-01-30T12:27:54;15.17;;;8.80;;
1467;SDS011;727;48.892;9.544;2024-01-30T12:30:21;12.43;;;8.43;;
1467;SDS011;727;48.892;9.544;2024-01-30T12:32:49;13.00;;;8.57;;
1467;SDS011;727;48.892;9.544;2024-01-30T12:35:17;10.73;;;7.83;;
1467;SDS011;727;48.892;9.544;2024-01-30T12:37:45;18.47;;;11.10;;
1467;SDS011;727;48.892;9.544;2024-01-30T12:40:14;17.90;;;10.77;;
1467;SDS011;727;48.892;9.544;2024-01-30T12:42:42;13.33;;;7.43;;
1467;SDS011;727;48.892;9.544;2024-01-30T12:45:11;8.33;;;7.43;;
1467;SDS011;727;48.892;9.544;2024-01-30T12:47:38;9.33;;;7.50;;
1467;SDS011;727;48.892;9.544;2024-01-30T12:50:04;17.37;;;11.03;;
1467;SDS011;727;48.892;9.544;2024-01-30T12:52:32;10.67;;;8.20;;
1467;SDS011;727;48.892;9.544;2024-01-30T12:54:58;9.57;;;8.57;;
1467;SDS011;727;48.892;9.544;2024-01-30T12:57:25;13.43;;;7.80;;
1467;SDS011;727;48.892;9.544;2024-01-30T12:59:54;10.87;;;8.60;;
1467;SDS011;727;48.892;9.544;2024-01-30T13:02:21;18.30;;;10.03;;
1467;SDS011;727;48.892;9.544;2024-01-30T13:04:48;9.93;;;7.00;;
1467;SDS011;727;48.892;9.544;2024-01-30T13:07:15;17.73;;;9.90;;
1467;SDS011;727;48.892;9.544;2024-01-30T13:09:42;11.27;;;7.17;;
1467;SDS011;727;48.892;9.544;2024-01-30T13:12:09;13.10;;;8.70;;
1467;SDS011;727;48.892;9.544;2024-01-30T13:14:35;17.30;;;8.17;;
1467;SDS011;727;48.892;9.544;2024-01-30T13:17:04;9.30;;;7.53;;
1467;SDS011;727;48.892;9.544;2024-01-30T13:19:31;18.70;;;8.43;;
1467;SDS011;727;48.892;9.544;2024-01-30T13:21:57;19.53;;;8.40;;
1467;SDS011;727;48.892;9.544;2024-01-30T13:24:25;9.27;;;8.00;;
1467;SDS011;727;48.892;9.544;2024-01-30T13:26:52;8.13;;;6.60;;
1467;SDS011;727;48.892;9.544;2024-01-30T13:29:19;6.73;;;6.10;;
1467;SDS011;727;48.892;9.544;2024-01-30T13:31:46;8.00;;;6.13;;
1467;SDS011;727;48.892;9.544;2024-01-30T13:34:14;7.60;;;6.60;;
1467;SDS011;727;48.892;9.544;2024-01-30T13:36:41;24.60;;;8.43;;
1467;SDS011;727;48.892;9.544;2024-01-30T13:39:08;22.63;;;11.37;;
1467;SDS011;727;48.892;9.544;2024-01-30T13:41:37;14.93;;;8.63;;
1467;SDS011;727;48.892;9.544;2024-01-30T13:44:04;16.17;;;9.27;;
1467;SDS011;727;48.892;9.544;2024-01-30T13:46:32;16.60;;;9.83;;
1467;SDS011;727;48.892;9.544;2024-01-30T13:48:58;16.37;;;8.27;;
1467;SDS011;727;48.892;9.544;2024-01-30T13:51:26;15.00;;;9.40;;
1467;SDS011;727;48.892;9.544;2024-01-30T13:53:53;9.87;;;8.00;;
1467;SDS011;727;48.892;9.544;2024-01-30T13:56:20;11.73;;;7.63;;
1467;SDS011;727;48.892;9.544;2024-01-30T13:58:47;10.97;;;7.60;;
1467;SDS011;727;48.892;9.544;2024-01-30T14:01:14;10.57;;;8.90;;
1467;SDS011;727;48.892;9.544;2024-01-30T14:03:42;10.93;;;8.90;;
1467;SDS011;727;48.892;9.544;2024-01-30T14:06:08;10.30;;;9.07;;
1467;SDS011;727;48.892;9.544;2024-01-30T14:08:36;9.77;;;8.53;;
1467;SDS011;727;48.892;9.544;2024-01-30T14:11:03;17.27;;;10.43;;
1467;SDS011;727;48.892;9.544;2024-01-30T14:13:30;13.63;;;10.17;;
1467;SDS011;727;48.892;9.544;2024-01-30T14:16:00;15.60;;;9.30;;
1467;SDS011;727;48.892;9.544;2024-01-30T14:18:27;21.33;;;9.73;;
1467;SDS011;727;48.892;9.544;2024-01-30T14:20:54;12.20;;;8.90;;
1467;SDS011;727;48.892;9.544;2024-01-30T14:23:20;13.10;;;8.10;;
1467;SDS011;727;48.892;9.544;2024-01-30T14:25:49;12.37;;;8.87;;
1467;SDS011;727;48.892;9.544;2024-01-30T14:28:16;16.60;;;9.97;;
1467;SDS011;727;48.892;9.544;2024-01-30T14:30:43;17.13;;;11.50;;
1467;SDS011;727;48.892;9.544;2024-01-30T14:33:10;22.53;;;13.17;;
1467;SDS011;727;48.892;9.544;2024-01-30T14:35:36;24.27;;;16.97;;
1467;SDS011;727;48.892;9.544;2024-01-30T14:38:03;11.93;;;10.57;;
1467;SDS011;727;48.892;9.544;2024-01-30T14:40:32;13.90;;;9.07;;
1467;SDS011;727;48.892;9.544;2024-01-30T14:43:12;14.60;;;8.50;;
1467;SDS011;727;48.892;9.544;2024-01-30T14:45:39;11.40;;;8.13;;
1467;SDS011;727;48.892;9.544;2024-01-30T14:48:07;11.00;;;7.67;;
1467;SDS011;727;48.892;9.544;2024-01-30T14:50:34;11.07;;;9.10;;
1467;SDS011;727;48.892;9.544;2024-01-30T14:53:01;13.17;;;9.87;;
1467;SDS011;727;48.892;9.544;2024-01-30T14:55:27;14.57;;;10.20;;
1467;SDS011;727;48.892;9.544;2024-01-30T14:57:54;17.50;;;10.57;;
1467;SDS011;727;48.892;9.544;2024-01-30T15:00:22;18.53;;;11.53;;
1467;SDS011;727;48.892;9.544;2024-01-30T15:02:49;30.30;;;16.67;;
1467;SDS011;727;48.892;9.544;2024-01-30T15:05:16;29.80;;;18.27;;
1467;SDS011;727;48.892;9.544;2024-01-30T15:07:42;26.50;;;17.50;;
1467;SDS011;727;48.892;9.544;2024-01-30T15:10:09;18.43;;;14.27;;
1467;SDS011;727;48.892;9.544;2024-01-30T15:12:36;19.30;;;12.97;;
1467;SDS011;727;48.892;9.544;2024-01-30T15:15:04;17.43;;;14.30;;
1467;SDS011;727;48.892;9.544;2024-01-30T15:17:34;15.77;;;11.53;;